Time;durP1;ratioP1;P1;durP2;ratioP2;P2;SDS_P1;SDS_P2;PMS_P1;PMS_P2;Temp;Humidity;BMP_temperature;BMP_pressure;BME280_temperature;BME280_humidity;BME280_pressure;Samples;Min_cycle;Max_cycle;Signal;HPM_P1;HPM_P2
2021/12/08 00:02:11;;;;;;;;;;;;;;;-3.27;100.00;98878.72;1550876;90;21142;-69
2021/12/08 00:04:48;;;;;;;;;;;;;;;-3.29;100.00;98867.59;1569071;91;20244;-69
2021/12/08 00:07:21;;;;;;;;;;;;;;;-3.30;100.00;98864.66;1533511;91;20517;-69
2021/12/08 00:13:04;;;;;;;;;;;;;;;-3.32;100.00;98869.77;1528205;91;20162;-69
2021/12/08 00:16:10;;;;;;;;;;;;;;;-3.32;100.00;98858.77;1597559;89;20135;-69
2021/12/08 00:22:36;;;;;;;;;;;;;;;-3.35;100.00;98851.77;1627168;87;20469;-70
2021/12/08 00:37:07;;;;;;;;;;;;;;;-3.38;100.00;98832.43;1523202;93;20213;-70
2021/12/08 00:44:12;;;;;;;;;;;;;;;-3.39;100.00;98842.63;1512184;94;20113;-70
2021/12/08 00:47:45;;;;;;;;;;;;;;;-3.35;100.00;98849.15;1464854;96;20545;-70
2021/12/08 01:06:33;;;;;;;;;;;;;;;-3.54;100.00;98864.41;1448390;97;20229;-70
2021/12/08 01:18:05;;;;;;;;;;;;;;;-3.60;100.00;98849.87;1425400;99;20497;-71
2021/12/08 01:21:25;;;;;;;;;;;;;;;-3.64;100.00;98855.19;1386996;102;20111;-71
2021/12/08 01:24:23;;;;;;;;;;;;;;;-3.69;100.00;98857.84;1441980;97;98501;-70
2021/12/08 01:26:50;;;;;;;;;;;;;;;-3.65;100.00;98863.53;1446241;96;21217;-71
2021/12/08 01:29:16;;;;;;;;;;;;;;;-3.68;100.00;98850.78;1492713;95;20172;-70
2021/12/08 01:31:44;;;;;;;;;;;;;;;-3.71;100.00;98855.08;1465544;96;20223;-70
2021/12/08 01:34:12;;;;;;;;;;;;;;;-3.69;100.00;98860.97;1478921;96;20229;-70
2021/12/08 01:36:39;;;;;;;;;;;;;;;-3.72;100.00;98846.91;1525430;92;20221;-71
2021/12/08 01:39:06;;;;;;;;;;;;;;;-3.72;100.00;98850.34;1571726;91;21151;-69
2021/12/08 01:41:33;;;;;;;;;;;;;;;-3.75;100.00;98841.53;1549986;92;20179;-69
2021/12/08 01:46:34;;;;;;;;;;;;;;;-3.78;100.00;98831.88;1557560;89;20746;-71
2021/12/08 01:49:01;;;;;;;;;;;;;;;-3.78;100.00;98839.23;1571320;89;20492;-70
2021/12/08 01:51:29;;;;;;;;;;;;;;;-3.80;100.00;98839.10;1583199;89;21198;-69
2021/12/08 01:53:56;;;;;;;;;;;;;;;-3.79;100.00;98835.50;1545937;92;20156;-69
2021/12/08 01:56:24;;;;;;;;;;;;;;;-3.81;100.00;98830.42;1534570;92;20154;-71
2021/12/08 01:58:51;;;;;;;;;;;;;;;-3.85;100.00;98829.14;1640650;84;20144;-70
2021/12/08 02:01:19;;;;;;;;;;;;;;;-3.82;100.00;98832.74;1684490;84;20122;-70
2021/12/08 02:03:46;;;;;;;;;;;;;;;-3.84;100.00;98826.05;1704585;84;21141;-69
2021/12/08 02:06:14;;;;;;;;;;;;;;;-3.83;100.00;98821.11;1704721;84;20117;-69
2021/12/08 02:08:41;;;;;;;;;;;;;;;-3.84;100.00;98818.99;1678953;84;20108;-71
2021/12/08 02:11:07;;;;;;;;;;;;;;;-3.85;100.00;98810.78;1691747;84;20088;-70
2021/12/08 02:13:37;;;;;;;;;;;;;;;-3.84;100.00;98807.70;1672649;85;20100;-69
2021/12/08 02:16:08;;;;;;;;;;;;;;;-3.87;100.00;98808.87;1649933;86;21206;-69
2021/12/08 02:18:36;;;;;;;;;;;;;;;-3.88;100.00;98805.91;1691050;83;20456;-70
2021/12/08 02:21:05;;;;;;;;;;;;;;;-3.91;100.00;98807.08;1706207;83;20138;-71
2021/12/08 02:23:32;;;;;;;;;;;;;;;-3.89;100.00;98805.61;1677731;83;20505;-72
2021/12/08 02:25:58;;;;;;;;;;;;;;;-3.90;100.00;98808.70;1720194;82;20358;-71
2021/12/08 02:28:25;;;;;;;;;;;;;;;-3.90;100.00;98811.32;1718336;82;21168;-70
2021/12/08 02:30:58;;;;;;;;;;;;;;;-3.90;100.00;98817.88;1716993;83;20086;-70
2021/12/08 02:47:18;;;;;;;;;;;;;;;-3.90;100.00;98821.00;1721151;83;20452;-70
2021/12/08 02:49:42;;;;;;;;;;;;;;;-3.91;100.00;98802.34;1719941;82;20099;-71
2021/12/08 02:52:10;;;;;;;;;;;;;;;-3.93;100.00;98814.81;1718904;82;20405;-70
2021/12/08 02:54:40;;;;;;;;;;;;;;;-3.94;100.00;98808.76;1713550;83;21071;-70
2021/12/08 02:57:09;;;;;;;;;;;;;;;-3.93;100.00;98806.44;1719917;83;20441;-71
2021/12/08 02:59:36;;;;;;;;;;;;;;;-3.93;100.00;98812.19;1711335;82;20083;-70
2021/12/08 03:02:02;;;;;;;;;;;;;;;-3.97;100.00;98816.98;1706914;83;20094;-70
2021/12/08 03:04:29;;;;;;;;;;;;;;;-3.95;100.00;98823.34;1706231;83;20142;-70
2021/12/08 03:06:56;;;;;;;;;;;;;;;-3.95;100.00;98809.73;1708627;83;21225;-70
2021/12/08 03:09:22;;;;;;;;;;;;;;;-3.95;100.00;98812.36;1710262;82;20118;-70
2021/12/08 03:11:51;;;;;;;;;;;;;;;-3.94;100.00;98822.37;1711964;82;20722;-70
2021/12/08 03:14:18;;;;;;;;;;;;;;;-3.95;100.00;98818.10;1717284;82;20169;-70
2021/12/08 03:16:48;;;;;;;;;;;;;;;-3.97;100.00;98814.37;1720095;83;20119;-71
2021/12/08 03:19:15;;;;;;;;;;;;;;;-3.98;100.00;98804.05;1720190;83;21117;-70
2021/12/08 03:21:42;;;;;;;;;;;;;;;-3.97;100.00;98805.66;1720577;82;20206;-68
2021/12/08 03:24:18;;;;;;;;;;;;;;;-3.96;100.00;98801.56;1737311;82;20087;-70
2021/12/08 03:26:49;;;;;;;;;;;;;;;-3.97;100.00;98800.42;1748652;81;20135;-71
2021/12/08 03:29:20;;;;;;;;;;;;;;;-3.97;100.00;98801.73;1740569;81;20418;-69
2021/12/08 03:31:42;;;;;;;;;;;;;;;-3.98;100.00;98795.68;1734729;82;21192;-69
2021/12/08 03:34:06;;;;;;;;;;;;;;;-3.97;100.00;98799.95;1736673;82;20414;-70
2021/12/08 03:36:33;;;;;;;;;;;;;;;-3.97;100.00;98801.26;1736387;82;20178;-69
2021/12/08 03:39:01;;;;;;;;;;;;;;;-3.94;100.00;98797.46;1736466;82;20716;-71
2021/12/08 03:41:32;;;;;;;;;;;;;;;-3.93;100.00;98787.28;1748439;82;20082;-70
2021/12/08 03:43:57;;;;;;;;;;;;;;;-3.96;100.00;98792.39;1735206;82;21958;-68
2021/12/08 03:46:26;;;;;;;;;;;;;;;-3.97;100.00;98784.22;1736091;82;20075;-68
2021/12/08 03:48:51;;;;;;;;;;;;;;;-3.96;100.00;98795.52;1735305;82;20083;-69
2021/12/08 03:51:19;;;;;;;;;;;;;;;-3.99;100.00;98790.13;1744650;81;21298;-71
2021/12/08 03:53:46;;;;;;;;;;;;;;;-4.01;100.00;98802.59;1726835;82;20095;-69
2021/12/08 03:56:13;;;;;;;;;;;;;;;-4.00;100.00;98803.41;1743286;82;21169;-70
2021/12/08 03:58:39;;;;;;;;;;;;;;;-4.01;100.00;98794.73;1748852;82;20126;-69
2021/12/08 04:01:09;;;;;;;;;;;;;;;-4.01;100.00;98789.99;1744568;82;20162;-70
2021/12/08 04:03:39;;;;;;;;;;;;;;;-4.00;100.00;98795.55;1752343;82;20083;-69
2021/12/08 04:06:25;;;;;;;;;;;;;;;-4.00;100.00;98795.55;1743344;82;20071;-70
2021/12/08 04:08:53;;;;;;;;;;;;;;;-3.99;100.00;98791.91;1724664;82;22007;-69
2021/12/08 04:11:09;;;;;;;;;;;;;;;-3.99;100.00;98799.30;1721242;82;20089;-70
2021/12/08 04:13:48;;;;;;;;;;;;;;;-3.99;100.00;98797.99;1751089;82;20094;-69
2021/12/08 04:16:18;;;;;;;;;;;;;;;-3.99;100.00;98792.75;1738630;81;20654;-70
2021/12/08 04:18:45;;;;;;;;;;;;;;;-3.99;100.00;98790.13;1725503;82;20088;-71
2021/12/08 04:21:15;;;;;;;;;;;;;;;-4.02;100.00;98787.03;1710239;82;21144;-69
2021/12/08 04:23:44;;;;;;;;;;;;;;;-3.99;100.00;98802.41;1714831;83;20171;-69
2021/12/08 04:26:14;;;;;;;;;;;;;;;-3.99;100.00;98792.75;1714876;83;20113;-69
2021/12/08 04:28:41;;;;;;;;;;;;;;;-3.99;100.00;98794.53;1712621;83;20696;-68
2021/12/08 04:31:18;;;;;;;;;;;;;;;-4.00;100.00;98789.80;1717965;83;20150;-70
2021/12/08 04:33:48;;;;;;;;;;;;;;;-3.99;100.00;98816.34;1718349;83;20071;-70
2021/12/08 04:36:16;;;;;;;;;;;;;;;-4.01;100.00;98809.66;1718386;82;20099;-70
2021/12/08 04:38:47;;;;;;;;;;;;;;;-4.00;100.00;98803.41;1713793;83;20162;-71
2021/12/08 04:41:18;;;;;;;;;;;;;;;-4.01;100.00;98820.14;1718954;82;20119;-70
2021/12/08 04:43:59;;;;;;;;;;;;;;;-4.03;100.00;98819.50;1697684;83;20158;-68
2021/12/08 05:01:21;;;;;;;;;;;;;;;-3.98;100.00;98832.88;1743597;81;21149;-69
2021/12/08 05:08:19;;;;;;;;;;;;;;;-3.98;100.00;98844.68;1739839;82;20091;-69
2021/12/08 05:10:44;;;;;;;;;;;;;;;-3.98;100.00;98825.02;1723602;82;20141;-70
2021/12/08 05:13:11;;;;;;;;;;;;;;;-3.99;100.00;98803.71;1735237;82;21339;-70
2021/12/08 05:15:53;;;;;;;;;;;;;;;-4.01;100.00;98828.81;1728327;82;20114;-68
2021/12/08 05:18:23;;;;;;;;;;;;;;;-4.01;100.00;98842.42;1741305;82;20158;-68
2021/12/08 05:21:04;;;;;;;;;;;;;;;-4.01;100.00;98818.83;1740397;82;20137;-69
2021/12/08 05:23:43;;;;;;;;;;;;;;;-4.01;100.00;98824.07;1712183;82;20155;-69
2021/12/08 05:26:24;;;;;;;;;;;;;;;-4.02;100.00;98835.03;1722536;82;21157;-70
2021/12/08 05:28:52;;;;;;;;;;;;;;;-4.00;100.00;98828.31;1766482;81;20293;-69
2021/12/08 05:31:23;;;;;;;;;;;;;;;-4.00;100.00;98833.55;1764139;80;20348;-71
2021/12/08 05:33:49;;;;;;;;;;;;;;;-4.00;100.00;98828.31;1764564;80;20146;-68
2021/12/08 05:36:22;;;;;;;;;;;;;;;-4.06;100.00;98829.84;1761920;81;20555;-68
2021/12/08 05:38:47;;;;;;;;;;;;;;;-4.08;100.00;98824.46;1735110;81;21154;-70
2021/12/08 05:41:17;;;;;;;;;;;;;;;-4.08;100.00;98821.84;1757690;81;20113;-69
2021/12/08 05:43:44;;;;;;;;;;;;;;;-4.11;100.00;98819.08;1762231;81;20444;-70
2021/12/08 05:46:11;;;;;;;;;;;;;;;-4.12;100.00;98813.50;1758481;81;20488;-68
2021/12/08 05:48:39;;;;;;;;;;;;;;;-4.14;100.00;98816.79;1760632;81;20134;-69
2021/12/08 05:51:11;;;;;;;;;;;;;;;-4.16;100.00;98820.11;1757096;81;21814;-69
2021/12/08 05:53:40;;;;;;;;;;;;;;;-4.17;100.00;98822.39;1723634;83;20515;-71
2021/12/08 05:56:09;;;;;;;;;;;;;;;-4.19;100.00;98821.75;1695074;84;20136;-68
2021/12/08 05:58:39;;;;;;;;;;;;;;;-4.18;100.00;98822.08;1757731;80;20793;-69
2021/12/08 06:01:21;;;;;;;;;;;;;;;-4.21;100.00;98827.19;1760657;81;20106;-68
2021/12/08 06:03:49;;;;;;;;;;;;;;;-4.21;100.00;98824.56;1757151;81;21189;-69
2021/12/08 06:06:21;;;;;;;;;;;;;;;-4.20;100.00;98820.94;1749763;81;20118;-69
2021/12/08 06:08:51;;;;;;;;;;;;;;;-4.19;100.00;98819.13;1744655;81;20170;-68
2021/12/08 06:11:18;;;;;;;;;;;;;;;-4.20;100.00;98831.92;1758232;81;20166;-70
2021/12/08 06:13:46;;;;;;;;;;;;;;;-4.19;100.00;98834.37;1760470;81;20110;-68
2021/12/08 06:16:14;;;;;;;;;;;;;;;-4.23;100.00;98829.16;1758651;81;21151;-70
2021/12/08 06:18:44;;;;;;;;;;;;;;;-4.21;100.00;98832.42;1762236;81;20094;-70
2021/12/08 06:21:17;;;;;;;;;;;;;;;-4.22;100.00;98841.77;1763643;81;20078;-69
2021/12/08 06:23:44;;;;;;;;;;;;;;;-4.25;100.00;98839.50;1758513;81;20443;-69
2021/12/08 06:26:13;;;;;;;;;;;;;;;-4.26;100.00;98841.78;1718766;82;20164;-68
2021/12/08 06:28:39;;;;;;;;;;;;;;;-4.27;100.00;98834.42;1722524;82;21099;-69
2021/12/08 06:31:06;;;;;;;;;;;;;;;-4.29;100.00;98837.71;1725923;83;20095;-70
2021/12/08 06:33:33;;;;;;;;;;;;;;;-4.28;100.00;98839.36;1723886;82;20466;-69
2021/12/08 06:36:06;;;;;;;;;;;;;;;-4.27;100.00;98834.42;1723419;82;20139;-69
2021/12/08 06:38:33;;;;;;;;;;;;;;;-4.24;100.00;98831.95;1718466;83;20184;-69
2021/12/08 06:41:03;;;;;;;;;;;;;;;-4.20;100.00;98838.48;1722231;83;21166;-71
2021/12/08 06:43:34;;;;;;;;;;;;;;;-4.20;100.00;98834.55;1720228;83;20153;-69
2021/12/08 06:46:01;;;;;;;;;;;;;;;-4.25;100.00;98828.52;1723441;82;20170;-68
2021/12/08 06:48:30;;;;;;;;;;;;;;;-4.32;100.00;98828.39;1721276;82;20160;-69
2021/12/08 06:51:09;;;;;;;;;;;;;;;-4.37;100.00;98835.97;1717604;83;20157;-69
2021/12/08 06:53:37;;;;;;;;;;;;;;;-4.35;100.00;98851.03;1717578;82;21134;-67
2021/12/08 06:56:16;;;;;;;;;;;;;;;-4.36;100.00;98844.64;1718976;83;20107;-67
2021/12/08 06:58:47;;;;;;;;;;;;;;;-4.31;100.00;98852.82;1725658;83;20500;-68
2021/12/08 07:06:45;;;;;;;;;;;;;;;-4.26;100.00;98841.78;1723692;83;21137;-68
2021/12/08 07:09:22;;;;;;;;;;;;;;;-4.25;100.00;98832.95;1719341;83;20128;-71
2021/12/08 07:11:49;;;;;;;;;;;;;;;-4.29;100.00;98842.95;1719848;83;20588;-69
2021/12/08 07:14:16;;;;;;;;;;;;;;;-4.29;100.00;98842.14;1719670;83;20184;-72
2021/12/08 07:16:44;;;;;;;;;;;;;;;-4.32;100.00;98847.23;1719031;83;20137;-69
2021/12/08 07:19:32;;;;;;;;;;;;;;;-4.36;100.00;98842.02;1715213;82;21133;-71
2021/12/08 07:21:52;;;;;;;;;;;;;;;-4.34;100.00;98822.52;1714319;82;20120;-69
2021/12/08 07:24:23;;;;;;;;;;;;;;;-4.32;100.00;98843.31;1718296;82;20226;-68
2021/12/08 07:26:51;;;;;;;;;;;;;;;-4.26;100.00;98852.27;1740567;81;20132;-69
2021/12/08 07:29:21;;;;;;;;;;;;;;;-4.24;100.00;98851.09;1740954;81;20188;-70
2021/12/08 07:32:00;;;;;;;;;;;;;;;-4.24;100.00;98843.73;1741178;81;21834;-69
2021/12/08 07:34:28;;;;;;;;;;;;;;;-4.24;100.00;98841.92;1740849;82;20095;-69
2021/12/08 07:36:58;;;;;;;;;;;;;;;-4.25;100.00;98821.16;1741106;81;20130;-72
2021/12/08 07:39:28;;;;;;;;;;;;;;;-4.30;100.00;98845.27;1741050;82;20238;-69
2021/12/08 07:41:58;;;;;;;;;;;;;;;-4.28;100.00;98838.05;1740743;82;20144;-68
2021/12/08 07:44:28;;;;;;;;;;;;;;;-4.34;100.00;98833.50;1740202;82;21075;-72
2021/12/08 07:47:04;;;;;;;;;;;;;;;-4.34;100.00;98846.59;1740596;82;20154;-72
2021/12/08 07:49:36;;;;;;;;;;;;;;;-4.30;100.00;98849.20;1740288;82;20119;-72
2021/12/08 07:52:13;;;;;;;;;;;;;;;-4.32;100.00;98851.98;1740521;82;22466;-70
2021/12/08 07:54:41;;;;;;;;;;;;;;;-4.31;100.00;98841.84;1740482;82;20163;-71
2021/12/08 07:57:12;;;;;;;;;;;;;;;-4.31;100.00;98829.23;1740362;82;21136;-72
2021/12/08 07:59:41;;;;;;;;;;;;;;;-4.24;100.00;98844.55;1740453;82;20147;-71
2021/12/08 08:02:08;;;;;;;;;;;;;;;-4.15;100.00;98836.95;1740523;82;20203;-69
2021/12/08 08:04:38;;;;;;;;;;;;;;;-4.19;100.00;98830.45;1718644;82;20508;-69
2021/12/08 08:07:05;;;;;;;;;;;;;;;-4.14;100.00;98836.44;1708730;82;20164;-70
2021/12/08 08:09:37;;;;;;;;;;;;;;;-4.14;100.00;98836.44;1740447;82;20941;-68
2021/12/08 08:12:06;;;;;;;;;;;;;;;-4.14;100.00;98834.66;1740515;82;20417;-71
2021/12/08 08:14:39;;;;;;;;;;;;;;;-4.15;100.00;98832.20;1741347;82;20095;-71
2021/12/08 08:17:05;;;;;;;;;;;;;;;-4.13;100.00;98830.23;1741171;82;20753;-69
2021/12/08 08:19:31;;;;;;;;;;;;;;;-4.06;100.00;98829.03;1744197;81;20202;-69
2021/12/08 08:22:01;;;;;;;;;;;;;;;-4.00;100.00;98827.00;1740768;82;21133;-71
2021/12/08 08:24:27;;;;;;;;;;;;;;;-3.98;100.00;98828.45;1740111;82;20185;-70
2021/12/08 08:26:56;;;;;;;;;;;;;;;-4.03;100.00;98822.92;1740688;82;20107;-72
2021/12/08 08:29:23;;;;;;;;;;;;;;;-4.05;100.00;98828.03;1740480;82;20151;-71
2021/12/08 08:31:58;;;;;;;;;;;;;;;-4.09;100.00;98806.61;1740233;82;20088;-69
2021/12/08 08:34:21;;;;;;;;;;;;;;;-4.06;100.00;98818.55;1739971;82;21240;-70
2021/12/08 08:36:50;;;;;;;;;;;;;;;-4.02;100.00;98823.73;1741041;82;20111;-69
2021/12/08 08:39:23;;;;;;;;;;;;;;;-4.05;100.00;98805.75;1740322;82;20457;-72
2021/12/08 08:42:01;;;;;;;;;;;;;;;-4.14;100.00;98801.06;1741311;82;20696;-70
2021/12/08 08:44:33;;;;;;;;;;;;;;;-4.15;100.00;98785.84;1747538;81;20186;-69
2021/12/08 08:47:07;;;;;;;;;;;;;;;-4.12;100.00;98778.11;1751688;81;21168;-70
2021/12/08 08:49:34;;;;;;;;;;;;;;;-4.07;100.00;98801.98;1751943;80;20125;-69
2021/12/08 08:52:11;;;;;;;;;;;;;;;-4.00;100.00;98802.09;1718639;82;20199;-70
2021/12/08 08:54:41;;;;;;;;;;;;;;;-3.99;100.00;98787.98;1717779;83;20452;-68
2021/12/08 08:57:11;;;;;;;;;;;;;;;-3.91;100.00;98798.41;1703333;82;20129;-69
2021/12/08 08:59:45;;;;;;;;;;;;;;;-3.84;100.00;98792.77;1732767;82;21225;-67
2021/12/08 09:02:17;;;;;;;;;;;;;;;-3.78;100.00;98791.23;1718321;83;20123;-69
2021/12/08 09:04:50;;;;;;;;;;;;;;;-3.72;100.00;98790.52;1718090;83;20138;-69
2021/12/08 09:07:23;;;;;;;;;;;;;;;-3.70;100.00;98778.86;1716367;83;20451;-68
2021/12/08 09:09:51;;;;;;;;;;;;;;;-3.74;100.00;98786.76;1718175;83;20117;-69
2021/12/08 09:12:22;;;;;;;;;;;;;;;-3.76;100.00;98784.80;1718130;83;21175;-69
2021/12/08 09:14:55;;;;;;;;;;;;;;;-3.72;100.00;98790.52;1718142;83;20498;-68
2021/12/08 09:17:28;;;;;;;;;;;;;;;-3.80;100.00;98774.85;1717690;83;20154;-68
2021/12/08 09:20:16;;;;;;;;;;;;;;;-3.81;100.00;98776.67;1714831;82;20187;-69
2021/12/08 09:22:49;;;;;;;;;;;;;;;-3.88;100.00;98766.08;1714788;83;20208;-68
2021/12/08 09:25:17;;;;;;;;;;;;;;;-3.89;100.00;98755.79;1740876;82;22009;-68
2021/12/08 09:27:51;;;;;;;;;;;;;;;-3.90;100.00;98765.94;1743294;81;20124;-64
2021/12/08 09:30:32;;;;;;;;;;;;;;;-3.95;100.00;98759.92;1718066;83;20144;-68
2021/12/08 09:32:59;;;;;;;;;;;;;;;-3.96;100.00;98755.69;1718244;83;20677;-67
2021/12/08 09:35:32;;;;;;;;;;;;;;;-3.97;100.00;98747.52;1720627;83;20141;-67
2021/12/08 09:38:05;;;;;;;;;;;;;;;-3.92;100.00;98758.27;1719801;83;21162;-66
2021/12/08 09:40:37;;;;;;;;;;;;;;;-3.88;100.00;98750.84;1720808;83;20128;-67
2021/12/08 09:43:12;;;;;;;;;;;;;;;-3.88;100.00;98754.78;1691927;82;20185;-69
2021/12/08 09:45:51;;;;;;;;;;;;;;;-3.91;100.00;98762.52;1691544;83;20246;-66
2021/12/08 09:48:18;;;;;;;;;;;;;;;-3.89;100.00;98753.97;1691493;84;20175;-69
2021/12/08 09:50:45;;;;;;;;;;;;;;;-3.87;100.00;98744.63;1708791;82;21137;-66
2021/12/08 09:53:13;;;;;;;;;;;;;;;-3.75;100.00;98748.42;1721197;82;20175;-68
2021/12/08 09:55:40;;;;;;;;;;;;;;;-3.69;100.00;98739.01;1737671;82;20170;-66
2021/12/08 09:58:06;;;;;;;;;;;;;;;-3.64;100.00;98750.27;1753611;82;20151;-68
2021/12/08 10:00:35;;;;;;;;;;;;;;;-3.67;100.00;98747.02;1751560;81;20114;-67
2021/12/08 10:03:04;;;;;;;;;;;;;;;-3.78;100.00;98738.27;1718760;83;21153;-67
2021/12/08 10:05:34;;;;;;;;;;;;;;;-3.79;100.00;98746.34;1733605;82;20115;-69
2021/12/08 10:08:03;;;;;;;;;;;;;;;-3.80;100.00;98738.95;1735777;82;20131;-67
2021/12/08 10:10:31;;;;;;;;;;;;;;;-3.76;100.00;98743.35;1724499;82;20899;-66
2021/12/08 10:12:57;;;;;;;;;;;;;;;-3.77;100.00;98735.15;1720917;83;20419;-67
2021/12/08 10:15:25;;;;;;;;;;;;;;;-3.82;100.00;98737.50;1720664;83;21879;-64
2021/12/08 10:17:55;;;;;;;;;;;;;;;-3.88;100.00;98739.86;1717225;83;20105;-71
2021/12/08 10:20:25;;;;;;;;;;;;;;;-3.85;100.00;98739.19;1720496;83;20206;-70
2021/12/08 10:23:12;;;;;;;;;;;;;;;-3.88;100.00;98746.91;1716696;83;20132;-68
2021/12/08 10:25:45;;;;;;;;;;;;;;;-3.81;100.00;98754.88;1721888;82;20166;-69
2021/12/08 10:28:17;;;;;;;;;;;;;;;-3.84;100.00;98746.08;1724181;83;21143;-69
2021/12/08 10:31:04;;;;;;;;;;;;;;;-3.84;100.00;98750.81;1725649;82;20444;-65
2021/12/08 10:34:09;;;;;;;;;;;;;;;-3.91;100.00;98739.42;1728357;82;20823;-68
2021/12/08 10:39:14;;;;;;;;;;;;;;;-3.99;100.00;98739.48;1722196;82;20186;-67
2021/12/08 10:41:56;;;;;;;;;;;;;;;-3.97;100.00;98733.57;1723363;83;21807;-69
2021/12/08 10:44:31;;;;;;;;;;;;;;;-3.91;100.00;98743.35;1717341;81;20102;-69
2021/12/08 10:46:58;;;;;;;;;;;;;;;-3.90;100.00;98737.91;1729469;83;20114;-66
2021/12/08 10:54:47;;;;;;;;;;;;;;;-3.84;100.00;98746.08;1725791;83;21171;-66
2021/12/08 10:57:32;;;;;;;;;;;;;;;-3.85;100.00;98742.61;1726807;83;20147;-67
2021/12/08 11:00:12;;;;;;;;;;;;;;;-3.90;100.00;98743.66;1710766;83;20179;-67
2021/12/08 11:02:45;;;;;;;;;;;;;;;-3.88;100.00;98741.67;1720245;83;20240;-66
2021/12/08 11:05:29;;;;;;;;;;;;;;;-3.89;100.00;98767.59;1729839;82;20445;-67
2021/12/08 11:08:18;;;;;;;;;;;;;;;-3.84;100.00;98761.30;1721941;83;21186;-68
2021/12/08 11:10:48;;;;;;;;;;;;;;;-3.79;100.00;98766.81;1724024;82;20165;-65
2021/12/08 11:13:16;;;;;;;;;;;;;;;-3.81;100.00;98758.31;1720465;83;20206;-67
2021/12/08 11:15:43;;;;;;;;;;;;;;;-3.79;100.00;98760.77;1724277;83;20203;-67
2021/12/08 11:18:22;;;;;;;;;;;;;;;-3.68;100.00;98755.05;1727287;83;20201;-67
2021/12/08 11:20:51;;;;;;;;;;;;;;;-3.61;100.00;98751.21;1726530;81;21183;-69
2021/12/08 11:23:38;;;;;;;;;;;;;;;-3.65;100.00;98750.74;1725460;82;20145;-66
2021/12/08 11:25:52;;;;;;;;;;;;;;;-3.68;100.00;98749.30;1724226;82;20804;-67
2021/12/08 11:28:22;;;;;;;;;;;;;;;-3.63;100.00;98755.82;1711978;82;20216;-67
2021/12/08 11:30:49;;;;;;;;;;;;;;;-3.59;100.00;98757.90;1707389;81;20109;-66
2021/12/08 11:33:19;;;;;;;;;;;;;;;-3.70;100.00;98752.63;1712393;83;21073;-65
2021/12/08 11:35:46;;;;;;;;;;;;;;;-3.71;100.00;98747.55;1712373;82;20141;-66
2021/12/08 11:38:13;;;;;;;;;;;;;;;-3.74;100.00;98734.81;1711826;83;20164;-65
2021/12/08 11:40:41;;;;;;;;;;;;;;;-3.78;100.00;98732.22;1712846;83;20861;-65
2021/12/08 11:43:15;;;;;;;;;;;;;;;-3.75;100.00;98727.45;1715012;83;20198;-66
2021/12/08 11:45:43;;;;;;;;;;;;;;;-3.77;100.00;98715.01;1711951;82;21807;-67
2021/12/08 11:48:21;;;;;;;;;;;;;;;-3.78;100.00;98705.50;1710513;83;20145;-64
2021/12/08 11:50:48;;;;;;;;;;;;;;;-3.76;100.00;98706.13;1710833;83;20124;-65
2021/12/08 11:53:20;;;;;;;;;;;;;;;-3.75;100.00;98710.40;1718681;83;20159;-66
2021/12/08 11:55:46;;;;;;;;;;;;;;;-3.75;100.00;98705.16;1715532;83;20215;-65
2021/12/08 11:58:12;;;;;;;;;;;;;;;-3.78;100.00;98713.36;1711659;82;21077;-66
2021/12/08 12:00:41;;;;;;;;;;;;;;;-3.73;100.00;98715.44;1713892;83;20215;-63
2021/12/08 12:03:10;;;;;;;;;;;;;;;-3.70;100.00;98696.71;1712968;82;20246;-66
2021/12/08 12:05:41;;;;;;;;;;;;;;;-3.74;100.00;98709.89;1710926;83;20149;-66
2021/12/08 12:08:10;;;;;;;;;;;;;;;-3.72;100.00;98717.09;1714002;82;20185;-66
2021/12/08 12:10:40;;;;;;;;;;;;;;;-3.71;100.00;98706.39;1715232;82;20541;-67
2021/12/08 12:13:11;;;;;;;;;;;;;;;-3.68;100.00;98707.84;1714358;83;20126;-65
2021/12/08 12:15:41;;;;;;;;;;;;;;;-3.64;100.00;98706.48;1708343;83;20111;-65
2021/12/08 12:18:08;;;;;;;;;;;;;;;-3.67;100.00;98700.30;1710857;83;20090;-66
2021/12/08 12:20:40;;;;;;;;;;;;;;;-3.72;100.00;98690.86;1710622;84;20460;-65
2021/12/08 12:23:16;;;;;;;;;;;;;;;-3.77;100.00;98699.75;1710068;84;21169;-64
2021/12/08 12:26:11;;;;;;;;;;;;;;;-3.72;100.00;98698.73;1710887;82;20463;-65
2021/12/08 12:29:07;;;;;;;;;;;;;;;-3.73;100.00;98695.77;1721044;83;20133;-66
2021/12/08 12:32:05;;;;;;;;;;;;;;;-3.73;100.00;98691.34;1720453;83;20153;-64
2021/12/08 12:34:39;;;;;;;;;;;;;;;-3.70;100.00;98692.30;1721284;83;20125;-66
2021/12/08 12:37:24;;;;;;;;;;;;;;;-3.75;100.00;98693.36;1721341;83;21171;-65
2021/12/08 12:39:55;;;;;;;;;;;;;;;-3.80;100.00;98692.25;1720845;83;20490;-65
2021/12/08 12:42:22;;;;;;;;;;;;;;;-3.80;100.00;98693.06;1720544;83;20196;-64
2021/12/08 12:45:02;;;;;;;;;;;;;;;-3.87;100.00;98698.74;1721257;82;20170;-66
2021/12/08 12:47:32;;;;;;;;;;;;;;;-3.91;100.00;98703.52;1717759;83;20469;-65
2021/12/08 12:50:21;;;;;;;;;;;;;;;-3.92;100.00;98701.06;1721308;83;21135;-67
2021/12/08 12:52:55;;;;;;;;;;;;;;;-3.95;100.00;98698.31;1720909;82;20421;-64
2021/12/08 12:55:28;;;;;;;;;;;;;;;-3.99;100.00;98700.16;1719049;82;20146;-64
2021/12/08 12:58:05;;;;;;;;;;;;;;;-3.98;100.00;98699.19;1717845;83;20115;-65
2021/12/08 13:00:41;;;;;;;;;;;;;;;-4.01;100.00;98702.17;1716730;83;20124;-63
2021/12/08 13:03:08;;;;;;;;;;;;;;;-4.02;100.00;98700.03;1719964;83;21817;-64
2021/12/08 13:05:50;;;;;;;;;;;;;;;-4.00;100.00;98704.59;1720389;82;20152;-63
2021/12/08 13:08:38;;;;;;;;;;;;;;;-3.97;100.00;98709.98;1720339;83;20101;-63
2021/12/08 13:11:28;;;;;;;;;;;;;;;-4.02;100.00;98707.09;1721026;82;20158;-63
2021/12/08 13:13:56;;;;;;;;;;;;;;;-4.02;100.00;98713.13;1698864;83;20134;-62
2021/12/08 13:16:27;;;;;;;;;;;;;;;-4.06;100.00;98714.51;1720575;83;21853;-65
2021/12/08 13:19:00;;;;;;;;;;;;;;;-4.06;100.00;98713.70;1721014;83;20083;-66
2021/12/08 13:21:44;;;;;;;;;;;;;;;-4.04;100.00;98716.45;1717225;83;20454;-63
2021/12/08 13:24:37;;;;;;;;;;;;;;;-3.98;100.00;98718.34;1692021;84;20217;-63
2021/12/08 13:27:12;;;;;;;;;;;;;;;-4.02;100.00;98716.26;1707446;83;20161;-66
2021/12/08 13:29:49;;;;;;;;;;;;;;;-4.06;100.00;98726.30;1723241;83;21097;-66
2021/12/08 13:32:16;;;;;;;;;;;;;;;-4.06;100.00;98725.50;1719338;82;20145;-62
2021/12/08 13:34:46;;;;;;;;;;;;;;;-4.07;100.00;98737.77;1691664;83;20135;-62
2021/12/08 13:37:15;;;;;;;;;;;;;;;-4.02;100.00;98742.47;1719631;83;20654;-62
2021/12/08 13:39:43;;;;;;;;;;;;;;;-4.02;100.00;98744.59;1720447;82;20128;-64
2021/12/08 13:42:17;;;;;;;;;;;;;;;-4.01;100.00;98748.86;1720503;83;21138;-64
2021/12/08 13:44:53;;;;;;;;;;;;;;;-4.05;100.00;98752.82;1721729;83;20478;-66
2021/12/08 13:47:25;;;;;;;;;;;;;;;-4.01;100.00;98758.03;1722219;83;20148;-63
2021/12/08 13:49:54;;;;;;;;;;;;;;;-3.96;100.00;98761.43;1722716;83;20120;-63
2021/12/08 13:52:28;;;;;;;;;;;;;;;-4.00;100.00;98761.46;1723030;83;20441;-62
2021/12/08 13:55:10;;;;;;;;;;;;;;;-4.05;100.00;98765.92;1723786;83;21077;-66
2021/12/08 13:57:44;;;;;;;;;;;;;;;-4.04;100.00;98762.33;1722723;81;20156;-66
2021/12/08 14:00:17;;;;;;;;;;;;;;;-4.01;100.00;98767.71;1722999;83;20526;-64
2021/12/08 14:02:47;;;;;;;;;;;;;;;-4.00;100.00;98764.09;1670272;85;20143;-67
2021/12/08 14:05:17;;;;;;;;;;;;;;;-3.97;100.00;98771.58;1671407;85;20236;-67
2021/12/08 14:08:01;;;;;;;;;;;;;;;-3.93;100.00;98774.17;1670542;85;21139;-66
2021/12/08 14:10:31;;;;;;;;;;;;;;;-3.94;100.00;98764.69;1673325;85;20180;-65
2021/12/08 14:12:59;;;;;;;;;;;;;;;-3.95;100.00;98776.16;1675039;85;20233;-64
2021/12/08 14:15:32;;;;;;;;;;;;;;;-3.95;100.00;98782.20;1675640;85;20197;-66
2021/12/08 14:18:20;;;;;;;;;;;;;;;-3.92;100.00;98770.07;1675174;85;20548;-68
2021/12/08 14:20:59;;;;;;;;;;;;;;;-3.90;100.00;98771.19;1673786;85;21162;-67
2021/12/08 14:23:31;;;;;;;;;;;;;;;-3.88;100.00;98766.08;1675217;85;20120;-67
2021/12/08 14:26:06;;;;;;;;;;;;;;;-3.90;100.00;98771.98;1675103;85;20529;-67
2021/12/08 14:28:39;;;;;;;;;;;;;;;-3.87;100.00;98764.30;1666655;85;20157;-66
2021/12/08 14:31:09;;;;;;;;;;;;;;;-3.87;100.00;98778.72;1663131;85;20214;-68
2021/12/08 14:33:36;;;;;;;;;;;;;;;-3.90;100.00;98774.61;1661625;84;21151;-67
2021/12/08 14:36:06;;;;;;;;;;;;;;;-3.88;100.00;98774.45;1686056;84;20484;-66
2021/12/08 14:38:35;;;;;;;;;;;;;;;-3.84;100.00;98774.41;1665800;84;20511;-67